Time;durP1;ratioP1;P1;durP2;ratioP2;P2;SDS_P1;SDS_P2;PMS_P1;PMS_P2;Temp;Humidity;BMP_temperature;BMP_pressure;BME280_temperature;BME280_humidity;BME280_pressure;Samples;Min_cycle;Max_cycle;Signal;HPM_P1;HPM_P2
2022/03/13 00:00:35;;;;;;;2.60;1.87;;;;;;;;;;5072409;28;20107;-78
2022/03/13 00:03:02;;;;;;;1.75;1.48;;;;;;;;;;5069060;28;20602;-78
2022/03/13 00:05:28;;;;;;;1.73;1.10;;;;;;;;;;5069247;28;20072;-77
2022/03/13 00:07:56;;;;;;;4.82;1.30;;;;;;;;;;5076560;28;20482;-78
2022/03/13 00:10:27;;;;;;;2.83;1.00;;;;;;;;;;5087402;27;21000;-77
2022/03/13 00:12:53;;;;;;;2.55;1.35;;;;;;;;;;5070149;28;20072;-78
2022/03/13 00:15:23;;;;;;;2.78;1.05;;;;;;;;;;5073165;28;20131;-77
2022/03/13 00:17:50;;;;;;;1.35;1.02;;;;;;;;;;5077374;28;20044;-78
2022/03/13 00:20:17;;;;;;;2.25;1.13;;;;;;;;;;5070374;28;20040;-78
2022/03/13 00:22:43;;;;;;;2.03;0.80;;;;;;;;;;5074615;28;20048;-77
2022/03/13 00:25:10;;;;;;;0.93;0.80;;;;;;;;;;5076009;28;20063;-78
2022/03/13 00:27:36;;;;;;;2.80;1.20;;;;;;;;;;5071743;28;20040;-78
2022/03/13 00:30:06;;;;;;;1.42;0.88;;;;;;;;;;5076424;28;20036;-78
2022/03/13 00:32:32;;;;;;;1.92;1.13;;;;;;;;;;5091918;27;20141;-78
2022/03/13 00:35:02;;;;;;;1.40;1.00;;;;;;;;;;5095704;27;20568;-78
2022/03/13 00:37:30;;;;;;;2.22;1.17;;;;;;;;;;5093509;27;20029;-79
2022/03/13 00:39:57;;;;;;;2.05;1.17;;;;;;;;;;5076190;28;20127;-78
2022/03/13 00:42:26;;;;;;;1.92;0.90;;;;;;;;;;5072437;28;20075;-78
2022/03/13 00:44:55;;;;;;;1.65;1.05;;;;;;;;;;5076802;28;20354;-78
2022/03/13 00:47:23;;;;;;;2.30;1.92;;;;;;;;;;5071962;28;20029;-78
2022/03/13 00:49:52;;;;;;;2.90;1.55;;;;;;;;;;5091442;27;20127;-78
2022/03/13 00:52:18;;;;;;;2.00;1.27;;;;;;;;;;5076523;28;20041;-78
2022/03/13 00:54:48;;;;;;;2.65;1.25;;;;;;;;;;5091458;27;20044;-78
2022/03/13 00:57:14;;;;;;;2.97;1.23;;;;;;;;;;5093644;27;20473;-78
2022/03/13 00:59:40;;;;;;;2.05;1.30;;;;;;;;;;5074191;28;20073;-78
2022/03/13 01:02:06;;;;;;;2.03;1.20;;;;;;;;;;5070619;28;20609;-78
2022/03/13 01:04:32;;;;;;;6.00;1.38;;;;;;;;;;5075816;28;20141;-78
2022/03/13 01:06:59;;;;;;;3.00;1.38;;;;;;;;;;5073546;28;20150;-78
2022/03/13 01:09:25;;;;;;;3.15;1.50;;;;;;;;;;5072714;28;20512;-78
2022/03/13 01:11:51;;;;;;;2.03;1.20;;;;;;;;;;5074565;28;20045;-78
2022/03/13 01:14:19;;;;;;;1.30;1.10;;;;;;;;;;5064042;28;20733;-78
2022/03/13 01:16:45;;;;;;;1.42;0.93;;;;;;;;;;5074857;27;20306;-78
2022/03/13 01:19:13;;;;;;;1.50;1.00;;;;;;;;;;5074591;28;20045;-78
2022/03/13 01:21:41;;;;;;;2.35;1.23;;;;;;;;;;5074061;28;20040;-78
2022/03/13 01:24:11;;;;;;;2.35;1.17;;;;;;;;;;5074775;28;20036;-78
2022/03/13 01:26:38;;;;;;;1.38;1.00;;;;;;;;;;5076070;28;20033;-78
2022/03/13 01:29:06;;;;;;;2.63;1.30;;;;;;;;;;5067786;28;20052;-79
2022/03/13 01:31:34;;;;;;;2.20;1.50;;;;;;;;;;5070972;28;20040;-78
2022/03/13 01:34:00;;;;;;;2.10;1.08;;;;;;;;;;5075478;28;20044;-78
2022/03/13 01:36:27;;;;;;;3.67;1.90;;;;;;;;;;5092477;27;20115;-78
2022/03/13 01:38:55;;;;;;;1.98;1.10;;;;;;;;;;5070960;28;20124;-79
2022/03/13 01:41:23;;;;;;;3.88;1.50;;;;;;;;;;5078011;27;20105;-78
2022/03/13 01:43:50;;;;;;;5.50;1.30;;;;;;;;;;5075139;28;20587;-78
2022/03/13 01:46:20;;;;;;;1.80;1.10;;;;;;;;;;5073942;27;20048;-78
2022/03/13 01:49:03;;;;;;;1.88;1.10;;;;;;;;;;5072462;28;20051;-78
2022/03/13 01:51:32;;;;;;;2.80;1.77;;;;;;;;;;5069953;28;20060;-78
2022/03/13 01:54:01;;;;;;;1.88;1.02;;;;;;;;;;5087951;27;20048;-77
2022/03/13 01:56:29;;;;;;;1.85;1.17;;;;;;;;;;5068393;28;20040;-78
2022/03/13 01:58:56;;;;;;;2.28;1.20;;;;;;;;;;5076864;27;20074;-78
2022/03/13 02:01:23;;;;;;;2.50;1.35;;;;;;;;;;5073479;28;20623;-79
2022/03/13 02:03:49;;;;;;;2.97;1.27;;;;;;;;;;5087962;27;20036;-78
2022/03/13 02:06:16;;;;;;;2.78;1.40;;;;;;;;;;5090621;27;20059;-78
2022/03/13 02:08:44;;;;;;;3.08;1.80;;;;;;;;;;5092194;27;20036;-78
2022/03/13 02:11:10;;;;;;;3.65;1.70;;;;;;;;;;5074655;28;20077;-78
2022/03/13 02:13:36;;;;;;;2.22;1.33;;;;;;;;;;5088712;27;20040;-78
2022/03/13 02:16:05;;;;;;;4.30;1.85;;;;;;;;;;5085707;27;20445;-78
2022/03/13 02:18:31;;;;;;;2.97;1.73;;;;;;;;;;5075773;28;20043;-78
2022/03/13 02:20:57;;;;;;;2.53;1.40;;;;;;;;;;5075818;28;20032;-78
2022/03/13 02:23:26;;;;;;;4.90;1.95;;;;;;;;;;5070339;28;20040;-79
2022/03/13 02:25:54;;;;;;;3.28;1.77;;;;;;;;;;5078216;27;20048;-78
2022/03/13 02:28:21;;;;;;;4.50;1.75;;;;;;;;;;5072144;28;20032;-77
2022/03/13 02:30:48;;;;;;;4.15;1.80;;;;;;;;;;5072483;28;20215;-78
2022/03/13 02:33:17;;;;;;;3.03;1.52;;;;;;;;;;5090784;27;20045;-77
2022/03/13 02:35:48;;;;;;;2.65;1.27;;;;;;;;;;5087373;27;20036;-78
2022/03/13 02:38:15;;;;;;;2.33;1.63;;;;;;;;;;5074894;28;20116;-78
2022/03/13 02:40:41;;;;;;;1.70;1.30;;;;;;;;;;5072915;28;20332;-78
2022/03/13 02:43:07;;;;;;;3.38;1.70;;;;;;;;;;5086638;27;20947;-77
2022/03/13 02:45:35;;;;;;;2.25;1.55;;;;;;;;;;5071241;28;20044;-78
2022/03/13 02:48:02;;;;;;;2.35;1.63;;;;;;;;;;5088519;27;21122;-78
2022/03/13 02:50:28;;;;;;;2.58;1.58;;;;;;;;;;5085082;27;20055;-77
2022/03/13 02:52:55;;;;;;;2.70;1.20;;;;;;;;;;5080846;27;20041;-78
2022/03/13 02:55:21;;;;;;;1.77;1.23;;;;;;;;;;5071903;28;20040;-78
2022/03/13 02:57:47;;;;;;;3.13;1.40;;;;;;;;;;5087808;27;20544;-77
2022/03/13 03:00:15;;;;;;;3.05;1.52;;;;;;;;;;5083956;27;20195;-78
2022/03/13 03:02:41;;;;;;;5.90;1.88;;;;;;;;;;5070162;27;20626;-78
2022/03/13 03:05:08;;;;;;;2.55;1.50;;;;;;;;;;5072775;27;20101;-78
2022/03/13 03:07:35;;;;;;;3.13;1.40;;;;;;;;;;5065723;28;20079;-78
2022/03/13 03:10:01;;;;;;;2.15;1.23;;;;;;;;;;5070436;28;20040;-78
2022/03/13 03:12:30;;;;;;;3.05;1.83;;;;;;;;;;5065930;28;20147;-78
2022/03/13 03:14:56;;;;;;;2.67;1.33;;;;;;;;;;5064620;28;20147;-78
2022/03/13 03:17:23;;;;;;;1.75;1.10;;;;;;;;;;5068759;28;20499;-78
2022/03/13 03:19:49;;;;;;;2.75;1.38;;;;;;;;;;5069434;28;20147;-78
2022/03/13 03:22:15;;;;;;;2.67;1.50;;;;;;;;;;5070099;28;20122;-77
2022/03/13 03:24:41;;;;;;;2.90;1.42;;;;;;;;;;5064375;28;20993;-78
2022/03/13 03:27:08;;;;;;;1.77;1.20;;;;;;;;;;5069643;28;20041;-78
2022/03/13 03:29:34;;;;;;;3.30;1.30;;;;;;;;;;5064831;28;20133;-78
2022/03/13 03:32:02;;;;;;;2.72;1.27;;;;;;;;;;5072072;28;20052;-77
2022/03/13 03:34:28;;;;;;;1.85;1.27;;;;;;;;;;5064068;28;20044;-78
2022/03/13 03:37:04;;;;;;;1.95;1.42;;;;;;;;;;5064836;28;20041;-78
2022/03/13 03:39:31;;;;;;;3.08;1.65;;;;;;;;;;5067964;28;20040;-78
2022/03/13 03:41:58;;;;;;;2.78;1.50;;;;;;;;;;5065903;28;20071;-77
2022/03/13 03:44:24;;;;;;;3.28;1.45;;;;;;;;;;5064479;28;20056;-78
2022/03/13 03:46:51;;;;;;;3.20;0.98;;;;;;;;;;5067250;28;20465;-77
2022/03/13 03:49:17;;;;;;;3.28;1.55;;;;;;;;;;5066770;28;20144;-78
2022/03/13 03:51:44;;;;;;;1.88;1.08;;;;;;;;;;5068003;28;20056;-77
2022/03/13 03:54:10;;;;;;;3.40;1.45;;;;;;;;;;5073259;28;20036;-78
2022/03/13 03:56:36;;;;;;;1.88;1.00;;;;;;;;;;5070453;28;20534;-78
2022/03/13 03:59:03;;;;;;;1.50;1.10;;;;;;;;;;5073782;28;20040;-77
2022/03/13 04:01:36;;;;;;;1.48;1.15;;;;;;;;;;5067349;28;20041;-78
2022/03/13 04:04:02;;;;;;;2.67;1.30;;;;;;;;;;5073432;28;20047;-78
2022/03/13 04:06:30;;;;;;;2.15;1.00;;;;;;;;;;5081444;28;20095;-77
2022/03/13 04:08:56;;;;;;;1.92;1.00;;;;;;;;;;5091152;27;20040;-78
2022/03/13 04:11:22;;;;;;;2.40;1.10;;;;;;;;;;5072517;27;20047;-77
2022/03/13 04:13:48;;;;;;;2.58;1.20;;;;;;;;;;5073287;27;20127;-77
2022/03/13 04:16:14;;;;;;;1.63;0.90;;;;;;;;;;5088785;27;20522;-77
2022/03/13 04:18:40;;;;;;;3.58;1.27;;;;;;;;;;5090905;27;20119;-78
2022/03/13 04:21:06;;;;;;;2.33;1.33;;;;;;;;;;5093310;27;20044;-78
2022/03/13 04:23:33;;;;;;;1.92;1.27;;;;;;;;;;5093807;27;20534;-78
2022/03/13 04:26:00;;;;;;;2.60;0.85;;;;;;;;;;5089977;27;20122;-78
2022/03/13 04:28:26;;;;;;;2.60;2.10;;;;;;;;;;5068525;28;20055;-77
2022/03/13 04:30:57;;;;;;;1.95;1.40;;;;;;;;;;5077250;28;20040;-78
2022/03/13 04:33:23;;;;;;;1.73;1.02;;;;;;;;;;5070919;28;20048;-77
2022/03/13 04:35:49;;;;;;;2.70;1.08;;;;;;;;;;5068774;28;20143;-77
2022/03/13 04:38:16;;;;;;;2.03;1.45;;;;;;;;;;5090635;27;20879;-78
2022/03/13 04:40:43;;;;;;;3.72;1.42;;;;;;;;;;5074973;28;20518;-78
2022/03/13 04:43:09;;;;;;;1.63;1.20;;;;;;;;;;5079270;28;20120;-77
2022/03/13 04:45:35;;;;;;;1.85;1.00;;;;;;;;;;5092075;27;20134;-77
2022/03/13 04:48:01;;;;;;;1.67;0.90;;;;;;;;;;5069273;28;20051;-77
2022/03/13 04:50:27;;;;;;;1.88;1.17;;;;;;;;;;5075981;28;20044;-77
2022/03/13 04:52:53;;;;;;;1.88;1.05;;;;;;;;;;5070424;28;20351;-77
2022/03/13 04:55:19;;;;;;;1.80;0.70;;;;;;;;;;5089304;27;20048;-77
2022/03/13 04:57:46;;;;;;;1.75;1.35;;;;;;;;;;5089835;27;20118;-77
2022/03/13 05:00:12;;;;;;;2.92;0.98;;;;;;;;;;5074609;28;20044;-77
2022/03/13 05:02:38;;;;;;;1.63;0.95;;;;;;;;;;5071231;28;20032;-77
2022/03/13 05:05:04;;;;;;;2.10;1.40;;;;;;;;;;5071375;27;20051;-77
2022/03/13 05:07:30;;;;;;;2.22;1.75;;;;;;;;;;5075199;28;20040;-77
2022/03/13 05:09:56;;;;;;;1.20;0.98;;;;;;;;;;5072491;28;20045;-77
2022/03/13 05:12:27;;;;;;;1.20;0.70;;;;;;;;;;5073774;28;20540;-77
2022/03/13 05:14:53;;;;;;;1.33;0.82;;;;;;;;;;5072087;28;20033;-77
2022/03/13 05:17:19;;;;;;;1.02;0.80;;;;;;;;;;5069933;28;20044;-77
2022/03/13 05:19:45;;;;;;;1.75;0.90;;;;;;;;;;5072360;28;21175;-77
2022/03/13 05:22:11;;;;;;;1.67;0.98;;;;;;;;;;5068249;28;20555;-77
2022/03/13 05:24:37;;;;;;;1.60;1.10;;;;;;;;;;5071912;28;20040;-78
2022/03/13 05:27:03;;;;;;;1.67;1.08;;;;;;;;;;5072038;28;20064;-78
2022/03/13 05:29:29;;;;;;;0.75;0.63;;;;;;;;;;5073433;28;20114;-77
2022/03/13 05:31:55;;;;;;;1.20;0.90;;;;;;;;;;5073151;28;20617;-77
2022/03/13 05:34:21;;;;;;;1.85;0.88;;;;;;;;;;5070877;28;20049;-77
2022/03/13 05:36:48;;;;;;;2.58;1.20;;;;;;;;;;5073539;28;20037;-78
2022/03/13 05:39:14;;;;;;;1.77;1.13;;;;;;;;;;5072829;28;20044;-78
2022/03/13 05:41:42;;;;;;;2.75;1.38;;;;;;;;;;5061105;28;20523;-78
2022/03/13 05:44:09;;;;;;;1.15;0.80;;;;;;;;;;5073030;28;20041;-78
2022/03/13 05:46:35;;;;;;;0.77;0.77;;;;;;;;;;5069098;28;22053;-78
2022/03/13 05:49:02;;;;;;;2.92;1.08;;;;;;;;;;5068726;28;20361;-77
2022/03/13 05:51:28;;;;;;;3.08;0.90;;;;;;;;;;5071356;28;20045;-78
2022/03/13 05:53:54;;;;;;;2.13;0.88;;;;;;;;;;5060947;28;20128;-77
2022/03/13 05:56:20;;;;;;;1.83;0.82;;;;;;;;;;5069756;28;21101;-78
2022/03/13 05:58:46;;;;;;;2.03;1.38;;;;;;;;;;5075236;28;20443;-78
2022/03/13 06:01:12;;;;;;;1.38;0.85;;;;;;;;;;5072032;28;20052;-78
2022/03/13 06:03:38;;;;;;;1.65;0.93;;;;;;;;;;5066063;28;20128;-78
2022/03/13 06:06:05;;;;;;;0.70;0.60;;;;;;;;;;5074856;28;20477;-78
2022/03/13 06:08:31;;;;;;;0.63;0.40;;;;;;;;;;5088132;27;20526;-78
2022/03/13 06:11:00;;;;;;;1.30;0.60;;;;;;;;;;5073613;28;21055;-78
2022/03/13 06:13:26;;;;;;;1.10;0.57;;;;;;;;;;5087680;27;20493;-77
2022/03/13 06:15:53;;;;;;;1.45;0.88;;;;;;;;;;5065938;28;20508;-78
2022/03/13 06:18:19;;;;;;;2.53;0.82;;;;;;;;;;5085468;27;20040;-78
2022/03/13 06:20:45;;;;;;;2.85;0.82;;;;;;;;;;5068521;28;20722;-78
2022/03/13 06:23:11;;;;;;;1.73;0.90;;;;;;;;;;5069837;28;20044;-77
2022/03/13 06:25:37;;;;;;;0.98;0.98;;;;;;;;;;5077596;27;20045;-77
2022/03/13 06:28:04;;;;;;;0.60;0.60;;;;;;;;;;5092673;27;20048;-77
2022/03/13 06:30:30;;;;;;;1.92;0.95;;;;;;;;;;5095304;27;20644;-78
2022/03/13 06:32:56;;;;;;;1.10;0.80;;;;;;;;;;5068613;27;20031;-76
2022/03/13 06:35:24;;;;;;;1.85;0.80;;;;;;;;;;5073871;27;20563;-77
2022/03/13 06:37:52;;;;;;;1.50;0.90;;;;;;;;;;5070637;28;20051;-78
2022/03/13 06:40:20;;;;;;;1.38;0.77;;;;;;;;;;5069695;27;20038;-77
2022/03/13 06:42:47;;;;;;;1.17;0.80;;;;;;;;;;5088173;27;20574;-77
2022/03/13 06:45:13;;;;;;;1.02;0.90;;;;;;;;;;5088269;27;20084;-78
2022/03/13 06:47:47;;;;;;;1.23;1.08;;;;;;;;;;5092397;27;20654;-78
2022/03/13 06:50:22;;;;;;;1.20;0.98;;;;;;;;;;5070639;28;20048;-78
2022/03/13 06:53:05;;;;;;;0.85;0.60;;;;;;;;;;5072582;27;20070;-78
2022/03/13 06:55:44;;;;;;;;;;;;;;;;;;;;;
2022/03/13 06:58:21;;;;;;;0.80;0.65;;;;;;;;;;5091928;27;42697;-78
2022/03/13 07:00:48;;;;;;;1.02;0.70;;;;;;;;;;5069925;27;20068;-78
2022/03/13 07:03:25;;;;;;;1.00;0.77;;;;;;;;;;5072315;27;20040;-78
2022/03/13 07:06:04;;;;;;;1.00;0.63;;;;;;;;;;5095500;27;20064;-79
2022/03/13 07:08:33;;;;;;;0.68;0.65;;;;;;;;;;5070987;28;20123;-78
2022/03/13 07:11:02;;;;;;;1.10;0.80;;;;;;;;;;5073118;28;20511;-78
2022/03/13 07:13:31;;;;;;;0.50;0.50;;;;;;;;;;5086109;27;20097;-78
2022/03/13 07:15:58;;;;;;;1.38;0.77;;;;;;;;;;5073857;28;20055;-78
2022/03/13 07:18:26;;;;;;;1.58;0.65;;;;;;;;;;5066959;28;20036;-78
2022/03/13 07:20:52;;;;;;;0.98;0.70;;;;;;;;;;5074144;28;20126;-78
2022/03/13 07:23:18;;;;;;;1.13;0.70;;;;;;;;;;5093184;27;20106;-78
2022/03/13 07:25:44;;;;;;;1.45;0.80;;;;;;;;;;5088250;27;20043;-78
2022/03/13 07:28:10;;;;;;;1.05;0.80;;;;;;;;;;5092288;27;20101;-78
2022/03/13 07:30:36;;;;;;;1.67;0.80;;;;;;;;;;5085167;27;20039;-77
2022/03/13 07:33:03;;;;;;;2.00;0.80;;;;;;;;;;5071853;28;20042;-77
2022/03/13 07:35:29;;;;;;;0.50;0.50;;;;;;;;;;5072444;28;20049;-77
2022/03/13 07:37:55;;;;;;;1.60;0.70;;;;;;;;;;5089138;27;20036;-77
2022/03/13 07:40:21;;;;;;;1.30;0.80;;;;;;;;;;5087515;27;20277;-78
2022/03/13 07:42:47;;;;;;;2.38;0.82;;;;;;;;;;5076241;27;20124;-78
2022/03/13 07:45:14;;;;;;;0.90;0.73;;;;;;;;;;5069937;27;20044;-80
2022/03/13 07:47:40;;;;;;;2.05;0.70;;;;;;;;;;5087298;27;20086;-79
2022/03/13 07:50:07;;;;;;;1.08;0.80;;;;;;;;;;5086820;27;20576;-75
2022/03/13 07:52:33;;;;;;;1.08;0.60;;;;;;;;;;5093186;27;20048;-78
2022/03/13 07:54:59;;;;;;;0.90;0.70;;;;;;;;;;5087264;27;20047;-83
2022/03/13 07:57:25;;;;;;;1.08;0.88;;;;;;;;;;5091133;27;20076;-75
2022/03/13 07:59:51;;;;;;;0.73;0.65;;;;;;;;;;5093128;27;20040;-76
2022/03/13 08:02:19;;;;;;;1.80;0.82;;;;;;;;;;5088503;27;20043;-75
2022/03/13 08:04:48;;;;;;;1.05;0.55;;;;;;;;;;5071023;27;20131;-77
2022/03/13 08:07:14;;;;;;;4.13;0.68;;;;;;;;;;5072002;27;20052;-77
2022/03/13 08:09:40;;;;;;;0.65;0.52;;;;;;;;;;5088335;27;20840;-77
2022/03/13 08:12:06;;;;;;;1.00;0.88;;;;;;;;;;5086758;27;20907;-77
2022/03/13 08:14:36;;;;;;;0.95;0.65;;;;;;;;;;5073357;27;20048;-77
2022/03/13 08:17:07;;;;;;;2.33;0.90;;;;;;;;;;5075588;27;20032;-77
2022/03/13 08:19:59;;;;;;;0.75;0.52;;;;;;;;;;5067400;27;20052;-78
2022/03/13 08:22:37;;;;;;;0.32;0.32;;;;;;;;;;5091668;27;20767;-77
2022/03/13 08:25:26;;;;;;;0.65;0.50;;;;;;;;;;5087161;27;20048;-78
2022/03/13 08:30:44;;;;;;;0.70;0.70;;;;;;;;;;5087563;27;20838;-78
2022/03/13 08:36:04;;;;;;;1.70;1.02;;;;;;;;;;5076711;27;20083;-77
2022/03/13 08:38:37;;;;;;;1.13;0.80;;;;;;;;;;5074021;27;20591;-78
2022/03/13 08:41:33;;;;;;;2.05;0.85;;;;;;;;;;5073400;28;20544;-77
2022/03/13 08:44:09;;;;;;;0.77;0.60;;;;;;;;;;5096210;27;20987;-76
2022/03/13 08:46:58;;;;;;;1.27;0.65;;;;;;;;;;5071912;27;20131;-77
2022/03/13 08:49:35;;;;;;;2.45;0.60;;;;;;;;;;5088184;27;20070;-77
2022/03/13 08:55:13;;;;;;;;;;;;;;;;;;;;;
2022/03/13 08:57:42;;;;;;;0.98;0.75;;;;;;;;;;5089170;27;44702;-77
2022/03/13 09:00:21;;;;;;;1.52;0.88;;;;;;;;;;5072610;28;20045;-77
2022/03/13 09:02:47;;;;;;;1.20;0.70;;;;;;;;;;5075547;28;20127;-77
2022/03/13 09:05:25;;;;;;;1.95;1.00;;;;;;;;;;5091338;27;20055;-77
2022/03/13 09:08:13;;;;;;;0.73;0.63;;;;;;;;;;5061712;28;20088;-79
2022/03/13 09:10:45;;;;;;;1.45;0.85;;;;;;;;;;5072742;28;20037;-79
2022/03/13 09:13:41;;;;;;;0.68;0.57;;;;;;;;;;5050188;28;20048;-78
2022/03/13 09:16:26;;;;;;;1.00;0.80;;;;;;;;;;5067511;28;20137;-76
2022/03/13 09:19:06;;;;;;;0.82;0.60;;;;;;;;;;5064624;28;20052;-78
2022/03/13 09:21:34;;;;;;;0.60;0.60;;;;;;;;;;5074864;28;20120;-78
2022/03/13 09:24:08;;;;;;;1.20;0.90;;;;;;;;;;5067619;28;20041;-78
2022/03/13 09:27:05;;;;;;;1.08;0.85;;;;;;;;;;5072495;28;20041;-78
2022/03/13 09:30:06;;;;;;;1.92;0.77;;;;;;;;;;5074814;28;20091;-78
2022/03/13 09:36:01;;;;;;;0.98;0.63;;;;;;;;;;5069312;28;20060;-78
2022/03/13 09:41:42;;;;;;;1.65;0.98;;;;;;;;;;5072614;28;20080;-79
2022/03/13 09:44:24;;;;;;;1.20;0.90;;;;;;;;;;5068711;28;20072;-79
2022/03/13 09:47:16;;;;;;;1.05;0.88;;;;;;;;;;5064703;28;20103;-79
2022/03/13 09:53:00;;;;;;;0.98;0.85;;;;;;;;;;5066022;28;20073;-79
2022/03/13 09:55:32;;;;;;;1.60;0.60;;;;;;;;;;5065933;28;20053;-79
2022/03/13 09:58:13;;;;;;;1.23;1.00;;;;;;;;;;5069799;28;20033;-80
2022/03/13 10:00:55;;;;;;;1.52;0.82;;;;;;;;;;5066333;28;20048;-79
2022/03/13 10:03:30;;;;;;;2.22;0.90;;;;;;;;;;5064594;28;20063;-79
2022/03/13 10:06:24;;;;;;;2.28;0.90;;;;;;;;;;5069671;28;20048;-79
2022/03/13 10:09:00;;;;;;;2.78;1.15;;;;;;;;;;5060035;27;20052;-78
2022/03/13 10:11:38;;;;;;;1.65;0.90;;;;;;;;;;5065277;27;20054;-78
2022/03/13 10:14:34;;;;;;;2.17;1.02;;;;;;;;;;5069438;27;20147;-80
2022/03/13 10:20:25;;;;;;;1.15;0.80;;;;;;;;;;5089649;27;20040;-78
2022/03/13 10:23:16;;;;;;;0.82;0.65;;;;;;;;;;5072663;28;20060;-78
2022/03/13 10:26:05;;;;;;;0.60;0.60;;;;;;;;;;5064188;27;20278;-79
2022/03/13 10:28:47;;;;;;;1.20;1.10;;;;;;;;;;5074122;27;20056;-78
2022/03/13 10:31:15;;;;;;;;;;;;;;;;;;5073528;27;20041;-78
2022/03/13 10:34:17;;;;;;;;;;;;;;;;;;;;;
2022/03/13 10:37:01;;;;;;;1.08;0.77;;;;;;;;;;5084633;27;43219;-78
2022/03/13 10:39:47;;;;;;;0.77;0.70;;;;;;;;;;5070905;27;20049;-78
2022/03/13 10:42:31;;;;;;;2.72;1.13;;;;;;;;;;5089105;27;20041;-78
2022/03/13 10:45:14;;;;;;;1.20;0.88;;;;;;;;;;5071910;27;20036;-79
2022/03/13 10:47:50;;;;;;;;;;;;;;;;;;5074046;27;20041;-77
2022/03/13 10:50:36;;;;;;;1.15;0.85;;;;;;;;;;5070876;28;19920;-78
2022/03/13 10:53:44;;;;;;;1.30;0.80;;;;;;;;;;5074990;28;20072;-77
2022/03/13 10:56:19;;;;;;;2.50;1.95;;;;;;;;;;5029050;28;20053;-78
2022/03/13 10:58:50;;;;;;;2.00;1.35;;;;;;;;;;5016629;28;20053;-78
2022/03/13 11:01:21;;;;;;;0.57;0.47;;;;;;;;;;5029877;28;20468;-77
2022/03/13 11:03:59;;;;;;;1.98;1.08;;;;;;;;;;5034663;28;20281;-77
2022/03/13 11:06:34;;;;;;;1.30;0.88;;;;;;;;;;5045229;28;20041;-78
2022/03/13 11:09:06;;;;;;;1.55;1.05;;;;;;;;;;5031751;28;20061;-77
2022/03/13 11:11:50;;;;;;;;;;;;;;;;;;5029097;28;20045;-77
2022/03/13 11:17:45;;;;;;;2.47;0.95;;;;;;;;;;5002604;28;20102;-77
2022/03/13 11:20:20;;;;;;;2.05;1.40;;;;;;;;;;5033331;28;20136;-77
2022/03/13 11:22:52;;;;;;;1.00;0.90;;;;;;;;;;5042537;28;20056;-77
2022/03/13 11:25:30;;;;;;;;;;;;;;;;;;;;;
2022/03/13 11:31:31;;;;;;;1.63;1.20;;;;;;;;;;5072029;27;20553;-78
2022/03/13 11:34:16;;;;;;;1.35;0.90;;;;;;;;;;5067332;28;20052;-78
2022/03/13 11:36:45;;;;;;;2.58;1.20;;;;;;;;;;5071968;27;20040;-78
2022/03/13 11:39:28;;;;;;;2.63;1.30;;;;;;;;;;5088267;27;20712;-78
2022/03/13 11:42:04;;;;;;;3.45;1.83;;;;;;;;;;5066781;27;20593;-77
2022/03/13 11:44:35;;;;;;;2.88;1.50;;;;;;;;;;5072131;27;20052;-76
2022/03/13 11:47:40;;;;;;;2.00;1.23;;;;;;;;;;5070117;27;20051;-76
2022/03/13 11:50:22;;;;;;;1.90;1.08;;;;;;;;;;4968162;28;20918;-76
2022/03/13 11:53:19;;;;;;;2.13;1.10;;;;;;;;;;4969204;28;20058;-76
2022/03/13 11:56:17;;;;;;;;;;;;;;;;;;;;;
2022/03/13 11:58:57;;;;;;;2.17;1.38;;;;;;;;;;5081316;27;41405;-76
2022/03/13 12:01:52;;;;;;;1.20;0.90;;;;;;;;;;5068347;28;20044;-76
2022/03/13 12:04:26;;;;;;;1.45;1.05;;;;;;;;;;5068195;28;20142;-76
2022/03/13 12:07:06;;;;;;;2.13;1.25;;;;;;;;;;5089419;27;20101;-76
2022/03/13 12:09:47;;;;;;;1.27;0.90;;;;;;;;;;5065025;28;20056;-76
2022/03/13 12:12:20;;;;;;;1.05;0.85;;;;;;;;;;5097084;27;20163;-75
2022/03/13 12:14:55;;;;;;;2.33;1.13;;;;;;;;;;5095623;27;20044;-76
2022/03/13 12:17:27;;;;;;;1.63;0.95;;;;;;;;;;5074592;28;20048;-76
2022/03/13 12:20:03;;;;;;;4.82;2.08;;;;;;;;;;5073974;28;20050;-74
2022/03/13 12:25:42;;;;;;;1.80;0.98;;;;;;;;;;5095732;27;20063;-74
2022/03/13 12:28:17;;;;;;;1.65;1.10;;;;;;;;;;5079537;28;20044;-75
2022/03/13 12:31:08;;;;;;;1.42;0.93;;;;;;;;;;5091058;27;20036;-79
2022/03/13 12:33:46;;;;;;;1.90;1.25;;;;;;;;;;5072677;27;20045;-77
2022/03/13 12:36:24;;;;;;;2.05;1.15;;;;;;;;;;5084233;27;20045;-76
2022/03/13 12:38:59;;;;;;;1.75;0.98;;;;;;;;;;5076651;27;20040;-77
2022/03/13 12:41:33;;;;;;;1.75;0.85;;;;;;;;;;5073662;28;20080;-77
2022/03/13 12:44:16;;;;;;;1.98;1.40;;;;;;;;;;5071758;28;20123;-76
2022/03/13 12:46:50;;;;;;;1.55;1.10;;;;;;;;;;5067264;27;20561;-78
2022/03/13 12:49:19;;;;;;;4.10;1.50;;;;;;;;;;5071622;27;20033;-77
2022/03/13 12:52:07;;;;;;;1.95;1.10;;;;;;;;;;5075506;27;20056;-76
2022/03/13 12:54:36;;;;;;;5.90;1.33;;;;;;;;;;5075642;28;20035;-76
2022/03/13 12:57:10;;;;;;;2.67;1.42;;;;;;;;;;5074865;28;20083;-76
2022/03/13 12:59:49;;;;;;;1.60;1.13;;;;;;;;;;5066102;28;20043;-76
2022/03/13 13:02:32;;;;;;;1.80;1.20;;;;;;;;;;5073267;27;20036;-76
2022/03/13 13:05:01;;;;;;;;;;;;;;;;;;5075618;27;20118;-77
2022/03/13 13:07:28;;;;;;;1.85;1.10;;;;;;;;;;5074584;28;19925;-76
2022/03/13 13:09:58;;;;;;;2.22;1.55;;;;;;;;;;5067959;28;20125;-76
2022/03/13 13:12:31;;;;;;;2.40;1.23;;;;;;;;;;5070219;28;20124;-74
2022/03/13 13:15:04;;;;;;;2.92;2.15;;;;;;;;;;5071594;28;20048;-74
2022/03/13 13:20:33;;;;;;;2.33;1.48;;;;;;;;;;5061246;28;20103;-74
2022/03/13 13:23:34;;;;;;;5.38;1.80;;;;;;;;;;5071813;28;20036;-74
2022/03/13 13:26:05;;;;;;;3.70;1.63;;;;;;;;;;5062181;28;20060;-74
2022/03/13 13:28:35;;;;;;;3.78;2.10;;;;;;;;;;5072898;28;20047;-74
2022/03/13 13:31:06;;;;;;;3.55;1.70;;;;;;;;;;5068501;28;20040;-75
2022/03/13 13:33:42;;;;;;;2.73;1.73;;;;;;;;;;5065721;28;20044;-74
2022/03/13 13:36:19;;;;;;;1.48;1.00;;;;;;;;;;5073263;28;20857;-75
2022/03/13 13:38:47;;;;;;;2.30;1.20;;;;;;;;;;5070311;28;20047;-72
2022/03/13 13:41:27;;;;;;;3.20;1.27;;;;;;;;;;5065077;28;20041;-74
2022/03/13 13:43:55;;;;;;;2.22;1.50;;;;;;;;;;5071708;28;20039;-74
2022/03/13 13:46:31;;;;;;;4.22;1.50;;;;;;;;;;5066846;28;20064;-73
2022/03/13 13:49:04;;;;;;;3.97;2.05;;;;;;;;;;5067715;28;20045;-73
2022/03/13 13:51:37;;;;;;;3.17;1.55;;;;;;;;;;5065791;28;20037;-73
2022/03/13 13:54:24;;;;;;;2.75;1.40;;;;;;;;;;5065776;28;20552;-74
2022/03/13 13:57:03;;;;;;;2.45;1.08;;;;;;;;;;5065122;28;20045;-74
2022/03/13 13:59:50;;;;;;;4.10;1.88;;;;;;;;;;5070101;28;20072;-74
2022/03/13 14:02:25;;;;;;;4.00;2.58;;;;;;;;;;5063690;28;20098;-74
2022/03/13 14:04:58;;;;;;;5.28;2.03;;;;;;;;;;5069250;28;20120;-74
2022/03/13 14:07:26;;;;;;;2.47;1.60;;;;;;;;;;5073323;28;21038;-74
2022/03/13 14:10:03;;;;;;;2.92;1.65;;;;;;;;;;5067581;28;20554;-74
2022/03/13 14:12:32;;;;;;;1.95;1.40;;;;;;;;;;5068166;28;20086;-74
2022/03/13 14:15:36;;;;;;;;;;;;;;;;;;;;;
2022/03/13 14:18:08;;;;;;;2.03;1.50;;;;;;;;;;5069689;28;40113;-74
2022/03/13 14:20:36;;;;;;;1.42;0.77;;;;;;;;;;5070232;28;20056;-74
2022/03/13 14:23:05;;;;;;;0.95;0.68;;;;;;;;;;5067891;28;20045;-74
2022/03/13 14:25:42;;;;;;;1.35;0.80;;;;;;;;;;5071555;28;20036;-74
2022/03/13 14:28:18;;;;;;;0.80;0.50;;;;;;;;;;5072291;28;20040;-74
2022/03/13 14:30:48;;;;;;;1.15;0.85;;;;;;;;;;5068061;28;20041;-74
2022/03/13 14:33:18;;;;;;;1.73;1.10;;;;;;;;;;5068208;28;20048;-74
2022/03/13 14:35:47;;;;;;;1.35;0.90;;;;;;;;;;5064160;27;20052;-75
2022/03/13 14:38:13;;;;;;;1.40;0.77;;;;;;;;;;5071523;28;20100;-74
2022/03/13 14:40:40;;;;;;;1.13;0.95;;;;;;;;;;5066120;28;20130;-75
2022/03/13 14:43:06;;;;;;;2.13;1.10;;;;;;;;;;5071282;28;20550;-74
2022/03/13 14:45:32;;;;;;;2.35;1.25;;;;;;;;;;5064555;28;20110;-74
2022/03/13 14:47:58;;;;;;;1.48;0.90;;;;;;;;;;5069060;28;20044;-74
2022/03/13 14:50:24;;;;;;;1.27;0.63;;;;;;;;;;5067698;28;20048;-75
2022/03/13 14:52:50;;;;;;;1.00;0.80;;;;;;;;;;5069073;28;20043;-78
2022/03/13 14:55:17;;;;;;;0.90;0.68;;;;;;;;;;5069952;28;20082;-74
2022/03/13 14:57:43;;;;;;;1.77;0.98;;;;;;;;;;5069777;28;20058;-74
2022/03/13 15:00:12;;;;;;;2.03;0.70;;;;;;;;;;5073081;28;20032;-73
2022/03/13 15:02:41;;;;;;;1.25;0.70;;;;;;;;;;5067955;28;20074;-74
2022/03/13 15:05:08;;;;;;;1.60;0.88;;;;;;;;;;5072442;28;20948;-74
2022/03/13 15:07:35;;;;;;;2.33;0.80;;;;;;;;;;5076127;27;20095;-75
2022/03/13 15:10:01;;;;;;;1.27;0.60;;;;;;;;;;5071241;27;20185;-74
2022/03/13 15:12:28;;;;;;;2.08;1.10;;;;;;;;;;5078111;27;20032;-75
2022/03/13 15:14:55;;;;;;;3.05;0.90;;;;;;;;;;5069988;27;20040;-75
2022/03/13 15:17:21;;;;;;;2.03;1.20;;;;;;;;;;5075187;27;20059;-75
2022/03/13 15:19:47;;;;;;;1.60;1.02;;;;;;;;;;5085574;27;20539;-75
2022/03/13 15:22:14;;;;;;;1.35;0.80;;;;;;;;;;5072673;27;20044;-74
2022/03/13 15:24:51;;;;;;;1.00;0.85;;;;;;;;;;5072590;27;20598;-81
2022/03/13 15:27:23;;;;;;;1.98;0.80;;;;;;;;;;5072770;27;20047;-82
2022/03/13 15:29:51;;;;;;;0.85;0.60;;;;;;;;;;5094420;27;20076;-83
2022/03/13 15:32:20;;;;;;;1.10;0.88;;;;;;;;;;5079480;28;20040;-82
2022/03/13 15:34:49;;;;;;;1.95;1.08;;;;;;;;;;5087668;27;20039;-84
2022/03/13 15:37:15;;;;;;;1.40;1.08;;;;;;;;;;5092031;27;20044;-74
2022/03/13 15:39:41;;;;;;;2.72;1.08;;;;;;;;;;5070090;28;20056;-74
2022/03/13 15:42:08;;;;;;;1.33;0.80;;;;;;;;;;5069732;28;20142;-74
2022/03/13 15:44:34;;;;;;;2.05;0.80;;;;;;;;;;5071848;27;20125;-74
2022/03/13 15:47:01;;;;;;;0.70;0.68;;;;;;;;;;5076153;27;20506;-74
2022/03/13 15:49:27;;;;;;;7.70;3.75;;;;;;;;;;5090744;27;20101;-74